createdAt,value
2017-09-29T00:00:33.062Z,16.67
2017-09-29T00:03:00.579Z,17.60
2017-09-29T00:05:28.106Z,18.57
2017-09-29T00:07:55.610Z,19.63
2017-09-29T00:10:23.508Z,19.63
2017-09-29T00:12:51.018Z,18.97
2017-09-29T00:15:18.527Z,21.00
2017-09-29T00:17:46.053Z,19.30
2017-09-29T00:20:13.963Z,19.40
2017-09-29T00:22:41.466Z,20.37
2017-09-29T00:25:09.786Z,19.57
2017-09-29T00:27:37.289Z,21.03
2017-09-29T00:30:04.771Z,18.37
2017-09-29T00:32:33.541Z,18.67
2017-09-29T00:35:01.418Z,18.73
2017-09-29T00:37:29.317Z,19.40
2017-09-29T00:39:56.814Z,18.30
2017-09-29T00:42:24.306Z,19.00
2017-09-29T00:44:52.182Z,18.70
2017-09-29T00:47:19.682Z,20.10
2017-09-29T00:49:48.134Z,18.47
2017-09-29T00:52:15.637Z,20.20
2017-09-29T00:54:43.117Z,18.13
2017-09-29T00:57:11.033Z,20.13
2017-09-29T00:59:38.518Z,18.50
2017-09-29T01:02:06.022Z,20.63
2017-09-29T01:04:33.530Z,19.87
2017-09-29T01:07:01.037Z,16.90
2017-09-29T01:09:28.546Z,21.13
2017-09-29T01:11:56.030Z,19.67
2017-09-29T01:14:23.918Z,20.10
2017-09-29T01:16:51.425Z,20.33
2017-09-29T01:19:18.905Z,19.80
2017-09-29T01:21:46.822Z,18.87
2017-09-29T01:24:14.302Z,22.67
2017-09-29T01:26:43.765Z,20.73
2017-09-29T01:29:11.254Z,21.37
2017-09-29T01:31:38.769Z,21.87
2017-09-29T01:34:07.216Z,19.87
2017-09-29T01:36:34.698Z,19.23
2017-09-29T01:39:04.559Z,21.13
2017-09-29T01:41:32.047Z,21.30
2017-09-29T01:44:00.546Z,21.47
2017-09-29T01:46:28.486Z,21.73
2017-09-29T01:48:55.976Z,21.93
2017-09-29T01:51:23.482Z,22.63
2017-09-29T01:53:50.968Z,21.17
2017-09-29T01:56:18.476Z,23.60
2017-09-29T01:58:45.962Z,21.23
2017-09-29T02:01:13.470Z,21.70
2017-09-29T02:03:40.954Z,22.80
2017-09-29T02:06:10.410Z,22.53
2017-09-29T02:08:38.294Z,22.00
2017-09-29T02:11:05.811Z,21.80
2017-09-29T02:13:33.571Z,23.50
2017-09-29T02:16:01.098Z,21.07
2017-09-29T02:18:29.541Z,19.93
2017-09-29T02:20:59.398Z,20.60
2017-09-29T02:23:26.893Z,21.17
2017-09-29T02:25:54.372Z,21.43
2017-09-29T02:28:22.262Z,24.90
2017-09-29T02:30:49.767Z,21.33
2017-09-29T02:33:17.249Z,20.87
2017-09-29T02:35:47.086Z,23.33
2017-09-29T02:38:14.581Z,23.20
2017-09-29T02:40:42.092Z,19.63
2017-09-29T02:43:09.579Z,19.73
2017-09-29T02:45:37.082Z,21.83
2017-09-29T02:48:04.970Z,21.27
2017-09-29T02:50:32.471Z,22.03
2017-09-29T02:52:59.960Z,19.50
2017-09-29T02:55:27.876Z,19.47
2017-09-29T02:58:01.094Z,21.07
2017-09-29T03:00:29.954Z,22.03
2017-09-29T03:03:02.281Z,22.17
2017-09-29T03:05:36.257Z,22.43
2017-09-29T03:08:03.769Z,21.40
2017-09-29T03:10:31.266Z,23.87
2017-09-29T03:12:58.764Z,25.90
2017-09-29T03:15:26.281Z,22.37
2017-09-29T03:17:53.774Z,19.43
2017-09-29T03:20:21.294Z,20.30
2017-09-29T03:22:48.781Z,20.03
2017-09-29T03:25:16.284Z,19.53
2017-09-29T03:27:43.806Z,19.93
2017-09-29T03:30:11.725Z,21.90
2017-09-29T03:32:40.420Z,21.93
2017-09-29T03:35:07.922Z,24.23
2017-09-29T03:37:35.438Z,22.27
2017-09-29T03:40:02.944Z,25.97
2017-09-29T03:42:30.429Z,23.30
2017-09-29T03:44:57.938Z,24.90
2017-09-29T03:47:25.841Z,26.43
2017-09-29T03:49:55.234Z,25.17
2017-09-29T03:52:27.219Z,25.90
2017-09-29T03:54:57.458Z,23.97
2017-09-29T03:57:32.274Z,26.57
2017-09-29T03:59:59.775Z,25.37
2017-09-29T04:02:27.692Z,26.53
2017-09-29T04:04:55.206Z,24.80
2017-09-29T04:07:24.601Z,28.47
2017-09-29T04:09:52.103Z,24.67
2017-09-29T04:12:21.106Z,24.97
2017-09-29T04:14:48.609Z,25.97
2017-09-29T04:17:16.097Z,23.83
2017-09-29T04:19:43.602Z,24.27
2017-09-29T04:22:11.078Z,24.10
2017-09-29T04:24:38.594Z,26.60
2017-09-29T04:27:06.081Z,26.30
2017-09-29T04:29:34.506Z,23.80
2017-09-29T04:32:01.997Z,23.50
2017-09-29T04:34:29.494Z,25.80
2017-09-29T04:36:57.401Z,24.50
2017-09-29T04:39:25.889Z,27.60
2017-09-29T04:41:53.374Z,26.40
2017-09-29T04:44:20.878Z,27.80
2017-09-29T04:46:49.983Z,27.63
2017-09-29T04:49:17.865Z,26.10
2017-09-29T04:51:45.362Z,25.73
2017-09-29T04:54:12.865Z,23.90
2017-09-29T04:56:40.388Z,24.90
2017-09-29T04:59:08.286Z,22.43
2017-09-29T05:01:35.771Z,27.77
2017-09-29T05:04:03.265Z,25.47
2017-09-29T05:06:31.148Z,29.23
2017-09-29T05:08:59.060Z,32.00
2017-09-29T05:11:26.575Z,31.23
2017-09-29T05:13:54.459Z,28.33
2017-09-29T05:16:21.960Z,29.90
2017-09-29T05:18:49.467Z,28.70
2017-09-29T05:21:16.962Z,28.03
2017-09-29T05:23:44.470Z,27.93
2017-09-29T05:26:14.313Z,27.57
2017-09-29T05:28:41.806Z,27.33
2017-09-29T05:31:09.284Z,28.73
2017-09-29T05:33:38.295Z,29.90
2017-09-29T05:36:07.094Z,31.47
2017-09-29T05:38:34.602Z,29.23
2017-09-29T05:41:02.102Z,30.73
2017-09-29T05:43:30.552Z,27.73
2017-09-29T05:45:58.050Z,30.47
2017-09-29T05:48:25.611Z,26.50
2017-09-29T05:50:53.089Z,30.67
2017-09-29T05:53:20.566Z,28.70
2017-09-29T05:55:48.082Z,26.73
2017-09-29T05:58:15.558Z,26.87
2017-09-29T06:00:43.059Z,25.00
2017-09-29T06:03:11.911Z,24.57
2017-09-29T06:05:39.423Z,24.70
2017-09-29T06:08:07.311Z,24.10
2017-09-29T06:10:34.813Z,48.33
2017-09-29T06:13:02.301Z,126.83
2017-09-29T06:15:30.187Z,98.20
2017-09-29T06:17:57.695Z,75.60
2017-09-29T06:20:25.194Z,41.80
2017-09-29T06:22:52.713Z,35.03
2017-09-29T06:25:22.174Z,28.90
2017-09-29T06:27:49.694Z,29.23
2017-09-29T06:30:17.592Z,28.50
2017-09-29T06:32:45.069Z,30.70
2017-09-29T06:35:12.579Z,27.87
2017-09-29T06:37:40.454Z,26.97
2017-09-29T06:40:07.961Z,26.37
2017-09-29T06:42:36.172Z,25.10
2017-09-29T06:45:04.067Z,25.20
2017-09-29T06:47:31.586Z,25.00
2017-09-29T06:49:59.086Z,27.80
2017-09-29T06:52:26.590Z,26.53
2017-09-29T06:54:54.085Z,24.67
2017-09-29T06:57:21.625Z,28.17
2017-09-29T06:59:49.498Z,29.03
2017-09-29T07:02:17.002Z,26.57
2017-09-29T07:04:45.398Z,26.80
2017-09-29T07:07:12.881Z,27.20
2017-09-29T07:09:41.499Z,27.20
2017-09-29T07:12:10.955Z,28.93
2017-09-29T07:14:38.990Z,32.40
2017-09-29T07:17:07.420Z,33.83
2017-09-29T07:19:35.322Z,32.40
2017-09-29T07:22:02.805Z,35.87
2017-09-29T07:24:36.501Z,32.03
2017-09-29T07:27:08.743Z,34.17
2017-09-29T07:29:39.247Z,35.60
2017-09-29T07:32:09.507Z,33.73
2017-09-29T07:34:37.010Z,35.57
2017-09-29T07:37:04.499Z,36.70
2017-09-29T07:39:33.153Z,34.53
2017-09-29T07:42:01.050Z,36.23
2017-09-29T07:44:28.594Z,35.03
2017-09-29T07:46:56.474Z,36.70
2017-09-29T07:49:23.981Z,35.00
2017-09-29T07:51:51.481Z,33.80
2017-09-29T07:54:25.785Z,32.60
2017-09-29T07:56:53.727Z,35.13
2017-09-29T07:59:21.213Z,35.57
2017-09-29T08:01:49.103Z,35.00
2017-09-29T08:04:16.606Z,34.47
2017-09-29T08:06:44.166Z,36.07
2017-09-29T08:09:11.674Z,35.07
2017-09-29T08:11:39.167Z,34.90
2017-09-29T08:14:06.671Z,35.20
2017-09-29T08:16:34.542Z,34.93
2017-09-29T08:19:03.003Z,37.23
2017-09-29T08:21:31.832Z,32.30
2017-09-29T08:23:59.335Z,33.37
2017-09-29T08:26:26.844Z,32.87
2017-09-29T08:28:54.342Z,32.83
2017-09-29T08:31:22.741Z,33.80
2017-09-29T08:33:50.642Z,33.07
2017-09-29T08:36:18.154Z,33.27
2017-09-29T08:38:45.658Z,33.70
2017-09-29T08:41:13.143Z,33.40
2017-09-29T08:43:40.652Z,45.13
2017-09-29T08:46:08.530Z,30.10
2017-09-29T08:48:37.061Z,30.60
2017-09-29T08:51:04.554Z,31.13
2017-09-29T08:53:32.466Z,31.70
2017-09-29T08:55:59.942Z,31.40
2017-09-29T08:58:28.379Z,30.60
2017-09-29T09:00:55.875Z,32.13
2017-09-29T09:03:23.370Z,32.30
2017-09-29T09:05:51.242Z,34.33
2017-09-29T09:08:19.129Z,31.30
2017-09-29T09:10:46.651Z,31.13
2017-09-29T09:13:14.550Z,39.83
2017-09-29T09:15:42.060Z,31.13
2017-09-29T09:18:09.558Z,31.47
2017-09-29T09:20:37.040Z,31.60
2017-09-29T09:23:04.550Z,33.90
2017-09-29T09:25:32.443Z,34.53
2017-09-29T09:28:00.869Z,29.23
2017-09-29T09:30:28.386Z,28.10
2017-09-29T09:32:55.894Z,26.90
2017-09-29T09:35:24.290Z,27.53
2017-09-29T09:37:52.166Z,27.00
2017-09-29T09:40:20.062Z,28.20
2017-09-29T09:42:48.486Z,25.63
2017-09-29T09:45:16.005Z,30.77
2017-09-29T09:47:43.483Z,29.60
2017-09-29T09:50:10.978Z,28.83
2017-09-29T09:52:38.859Z,25.07
2017-09-29T09:55:06.371Z,28.60
2017-09-29T09:57:34.827Z,29.30
2017-09-29T10:00:04.331Z,25.40
2017-09-29T10:02:31.914Z,24.57
2017-09-29T10:04:59.446Z,26.93
2017-09-29T10:07:26.939Z,27.67
2017-09-29T10:09:54.554Z,26.50
2017-09-29T10:12:22.054Z,26.63
2017-09-29T10:14:52.462Z,28.10
2017-09-29T10:17:19.947Z,25.30
2017-09-29T10:19:47.855Z,21.47
2017-09-29T10:22:15.352Z,23.17
2017-09-29T10:24:42.878Z,19.60
2017-09-29T10:27:10.403Z,20.93
2017-09-29T10:29:38.287Z,20.83
2017-09-29T10:32:07.782Z,22.57
2017-09-29T10:34:35.275Z,20.23
2017-09-29T10:37:02.790Z,21.43
2017-09-29T10:39:30.701Z,17.67
2017-09-29T10:42:00.179Z,17.03
2017-09-29T10:44:27.699Z,16.87
2017-09-29T10:46:55.178Z,16.23
2017-09-29T10:49:23.098Z,16.67
2017-09-29T10:51:51.518Z,17.00
2017-09-29T10:54:19.439Z,18.67
2017-09-29T10:56:46.942Z,19.33
2017-09-29T10:59:15.781Z,16.80
2017-09-29T11:01:45.250Z,15.63
2017-09-29T11:04:12.735Z,15.10
2017-09-29T11:06:40.230Z,14.70
2017-09-29T11:09:07.736Z,13.70
2017-09-29T11:11:35.233Z,15.00
2017-09-29T11:14:02.725Z,14.03
2017-09-29T11:16:30.623Z,14.03
2017-09-29T11:18:58.158Z,13.53
2017-09-29T11:21:25.676Z,12.43
2017-09-29T11:23:55.130Z,13.13
2017-09-29T11:26:22.637Z,14.47
2017-09-29T11:28:50.163Z,14.40
2017-09-29T11:31:17.645Z,11.27
2017-09-29T11:33:46.106Z,11.17
2017-09-29T11:36:13.603Z,11.37
2017-09-29T11:38:41.917Z,12.47
2017-09-29T11:41:09.417Z,11.83
2017-09-29T11:43:36.906Z,9.93
2017-09-29T11:46:04.825Z,10.40
2017-09-29T11:48:32.307Z,10.27
2017-09-29T11:50:59.821Z,9.53
2017-09-29T11:53:27.362Z,8.40
2017-09-29T11:55:54.870Z,8.63
2017-09-29T11:58:22.358Z,12.93
2017-09-29T12:00:50.256Z,9.77
2017-09-29T12:03:19.726Z,9.37
2017-09-29T12:05:47.594Z,9.13
2017-09-29T12:08:15.493Z,14.97
2017-09-29T12:10:42.979Z,8.87
2017-09-29T12:13:10.484Z,9.63
2017-09-29T12:15:38.358Z,7.90
2017-09-29T12:18:06.843Z,9.50
2017-09-29T12:20:34.362Z,7.20
2017-09-29T12:23:02.786Z,8.03
2017-09-29T12:25:30.298Z,7.70
2017-09-29T12:27:57.773Z,6.53
2017-09-29T12:30:25.683Z,6.67
2017-09-29T12:32:54.106Z,9.77
2017-09-29T12:35:21.611Z,6.23
2017-09-29T12:37:49.102Z,9.90
2017-09-29T12:40:16.602Z,9.20
2017-09-29T12:42:44.091Z,7.83
2017-09-29T12:47:38.657Z,8.17
2017-09-29T12:50:08.499Z,9.50
2017-09-29T12:52:35.985Z,8.00
2017-09-29T12:55:03.476Z,8.60
2017-09-29T12:57:31.372Z,9.40
2017-09-29T13:00:00.846Z,8.50
2017-09-29T13:02:29.683Z,7.30
2017-09-29T13:04:57.204Z,8.30
2017-09-29T13:07:25.099Z,7.03
2017-09-29T13:09:52.597Z,7.87
2017-09-29T13:12:20.086Z,9.37
2017-09-29T13:14:48.571Z,7.07
2017-09-29T13:17:18.010Z,9.10
2017-09-29T13:19:45.750Z,8.30
2017-09-29T13:22:14.126Z,7.70
2017-09-29T13:24:41.678Z,10.40
2017-09-29T13:27:09.364Z,8.73
2017-09-29T13:29:37.245Z,7.10
2017-09-29T13:32:04.861Z,7.53
2017-09-29T13:34:33.588Z,7.37
2017-09-29T13:37:01.118Z,7.67
2017-09-29T13:39:28.663Z,7.63
2017-09-29T13:41:58.401Z,8.60
2017-09-29T13:44:26.117Z,7.10
2017-09-29T13:46:54.048Z,12.87
2017-09-29T13:49:21.571Z,6.10
2017-09-29T13:51:49.182Z,9.30
2017-09-29T13:54:16.772Z,7.03
2017-09-29T13:56:45.880Z,7.60
2017-09-29T13:59:13.546Z,7.60
2017-09-29T14:01:41.136Z,5.57
2017-09-29T14:04:08.987Z,5.67
2017-09-29T14:06:36.665Z,4.90
2017-09-29T14:09:04.324Z,5.40
2017-09-29T14:11:32.566Z,5.57
2017-09-29T14:14:01.074Z,6.70
2017-09-29T14:16:30.390Z,4.40
2017-09-29T14:18:59.938Z,7.97
2017-09-29T14:21:28.442Z,4.63
2017-09-29T14:23:55.985Z,19.60
2017-09-29T14:26:23.516Z,6.07
2017-09-29T14:28:51.136Z,5.00
2017-09-29T14:31:18.832Z,5.57
2017-09-29T14:33:46.429Z,5.07
2017-09-29T14:36:14.037Z,4.53
2017-09-29T14:38:41.587Z,4.20
2017-09-29T14:41:09.130Z,5.97
2017-09-29T14:43:36.808Z,4.00
2017-09-29T14:46:04.361Z,6.93
2017-09-29T14:48:31.909Z,4.07
2017-09-29T14:50:59.480Z,3.90
2017-09-29T14:53:27.929Z,6.70
2017-09-29T14:55:55.510Z,5.20
2017-09-29T14:58:23.015Z,5.00
2017-09-29T15:00:50.549Z,9.17
2017-09-29T15:03:18.046Z,6.10
2017-09-29T15:05:45.538Z,7.90
2017-09-29T15:08:15.014Z,3.97
2017-09-29T15:10:42.484Z,9.07
2017-09-29T15:13:10.001Z,4.50
2017-09-29T15:15:37.474Z,5.83
2017-09-29T15:18:05.361Z,4.07
2017-09-29T15:20:32.881Z,5.73
2017-09-29T15:23:00.358Z,6.07
2017-09-29T15:25:28.281Z,3.60
2017-09-29T15:27:55.760Z,4.07
2017-09-29T15:30:25.219Z,6.43
2017-09-29T15:32:52.726Z,5.97
2017-09-29T15:35:20.602Z,7.17
2017-09-29T15:37:48.502Z,3.40
2017-09-29T15:40:15.997Z,6.00
2017-09-29T15:42:43.490Z,4.03
2017-09-29T15:45:11.374Z,4.63
2017-09-29T15:47:40.865Z,3.87
2017-09-29T15:50:08.342Z,3.57
2017-09-29T15:52:37.783Z,4.10
2017-09-29T15:55:06.391Z,6.17
2017-09-29T15:57:33.919Z,5.00
2017-09-29T16:00:01.444Z,4.70
2017-09-29T16:02:28.916Z,4.63
2017-09-29T16:04:56.441Z,6.07
2017-09-29T16:07:24.720Z,7.23
2017-09-29T16:09:52.213Z,7.13
2017-09-29T16:12:19.698Z,8.23
2017-09-29T16:14:47.972Z,5.47
2017-09-29T16:17:15.454Z,5.40
2017-09-29T16:19:42.935Z,5.00
2017-09-29T16:22:10.442Z,13.23
2017-09-29T16:24:38.717Z,5.80
2017-09-29T16:27:07.188Z,5.27
2017-09-29T16:29:34.770Z,7.77
2017-09-29T16:32:02.665Z,5.80
2017-09-29T16:34:30.162Z,8.37
2017-09-29T16:36:57.653Z,5.27
2017-09-29T16:39:26.389Z,6.87
2017-09-29T16:41:53.861Z,7.03
2017-09-29T16:44:21.358Z,5.80
2017-09-29T16:46:49.229Z,5.57
2017-09-29T16:49:17.130Z,6.60
2017-09-29T16:51:45.567Z,4.87
2017-09-29T16:54:13.471Z,8.13
2017-09-29T16:56:41.013Z,5.83
2017-09-29T16:59:08.514Z,6.13
2017-09-29T17:01:37.667Z,5.77
2017-09-29T17:04:05.191Z,6.10
2017-09-29T17:06:32.710Z,7.73
2017-09-29T17:09:00.208Z,6.07
2017-09-29T17:11:30.479Z,9.70
2017-09-29T17:13:59.966Z,6.17
2017-09-29T17:16:27.447Z,6.17
2017-09-29T17:18:54.966Z,4.70
2017-09-29T17:21:22.849Z,5.17
2017-09-29T17:23:51.673Z,6.47
2017-09-29T17:26:19.693Z,6.13
2017-09-29T17:28:48.290Z,6.30
2017-09-29T17:31:15.802Z,5.73
2017-09-29T17:33:43.306Z,6.63
2017-09-29T17:36:10.796Z,6.03
2017-09-29T17:38:38.294Z,5.57
2017-09-29T17:41:06.172Z,5.43
2017-09-29T17:43:35.170Z,5.10
2017-09-29T17:46:02.663Z,5.07
2017-09-29T17:48:30.151Z,5.73
2017-09-29T17:50:57.637Z,7.77
2017-09-29T17:53:26.098Z,5.83
2017-09-29T17:55:58.047Z,6.90
2017-09-29T17:58:28.458Z,5.53
2017-09-29T18:00:56.075Z,5.80
2017-09-29T18:03:23.579Z,5.87
2017-09-29T18:05:51.783Z,7.53
2017-09-29T18:08:22.365Z,7.43
2017-09-29T18:10:51.728Z,7.60
2017-09-29T18:13:21.081Z,12.20
2017-09-29T18:15:48.575Z,9.73
2017-09-29T18:18:16.502Z,11.60
2017-09-29T18:20:43.993Z,7.40
2017-09-29T18:23:13.520Z,6.33
2017-09-29T18:28:47.837Z,7.90
2017-09-29T18:31:16.385Z,8.43
2017-09-29T18:33:44.909Z,8.00
2017-09-29T18:36:18.692Z,6.83
2017-09-29T19:14:23.339Z,8.60
2017-09-29T19:16:54.542Z,8.03
2017-09-29T19:19:24.673Z,8.53
2017-09-29T19:21:52.388Z,8.40
2017-09-29T19:24:20.109Z,9.27
2017-09-29T19:26:48.498Z,10.10
2017-09-29T19:29:16.111Z,10.53
2017-09-29T19:31:58.471Z,8.60
2017-09-29T19:34:29.316Z,7.23
2017-09-29T19:41:32.507Z,6.30
2017-09-29T19:44:00.131Z,10.43
2017-09-29T19:46:35.079Z,10.13
2017-09-29T19:49:04.730Z,7.53
2017-09-29T19:51:50.541Z,7.83
2017-09-29T19:54:23.480Z,7.27
2017-09-29T19:56:58.303Z,11.17
2017-09-29T19:59:31.540Z,8.60
2017-09-29T20:01:59.263Z,6.03
2017-09-29T20:04:26.845Z,7.77
2017-09-29T20:06:54.444Z,9.20
2017-09-29T20:09:23.453Z,7.40
2017-09-29T20:11:51.066Z,10.70
2017-09-29T20:14:19.584Z,11.53
2017-09-29T20:16:47.134Z,11.43
2017-09-29T20:19:14.729Z,14.07
2017-09-29T20:21:43.317Z,15.40
2017-09-29T20:24:11.330Z,11.80
2017-09-29T20:26:40.502Z,11.43
2017-09-29T20:29:08.248Z,9.67
2017-09-29T20:31:35.910Z,8.93
2017-09-29T20:34:03.541Z,8.50
2017-09-29T20:36:31.118Z,8.60
2017-09-29T20:38:59.505Z,9.37
2017-09-29T20:41:27.987Z,8.13
2017-09-29T20:43:55.644Z,8.73
2017-09-29T20:46:26.817Z,8.50
2017-09-29T20:48:54.675Z,9.60
2017-09-29T20:51:22.231Z,8.57
2017-09-29T20:53:51.105Z,10.33
2017-09-29T20:56:19.803Z,12.07
2017-09-29T20:58:47.372Z,9.40
2017-09-29T21:01:15.749Z,9.43
2017-09-29T21:03:43.388Z,15.57
2017-09-29T21:06:11.369Z,11.33
2017-09-29T21:08:39.661Z,13.47
2017-09-29T21:11:07.301Z,18.40
2017-09-29T21:13:34.916Z,16.53
2017-09-29T21:16:02.750Z,20.50
2017-09-29T21:18:30.691Z,18.80
2017-09-29T21:20:58.680Z,16.10
2017-09-29T21:23:27.375Z,14.40
2017-09-29T21:25:55.385Z,15.20
2017-09-29T21:28:24.734Z,17.23
2017-09-29T21:30:52.836Z,15.93
2017-09-29T21:33:22.425Z,16.53
2017-09-29T21:35:49.986Z,15.40
2017-09-29T21:38:17.935Z,16.93
2017-09-29T21:40:45.866Z,15.40
2017-09-29T21:43:13.472Z,17.77
2017-09-29T21:45:42.119Z,15.10
2017-09-29T21:48:09.745Z,17.70
2017-09-29T21:50:37.380Z,15.90
2017-09-29T21:53:05.001Z,17.03
2017-09-29T21:55:33.897Z,13.57
2017-09-29T21:58:01.495Z,16.13
2017-09-29T22:00:29.196Z,22.50
2017-09-29T22:02:56.854Z,17.07
2017-09-29T22:05:24.487Z,17.07
2017-09-29T22:07:54.225Z,16.17
2017-09-29T22:10:22.060Z,15.03
2017-09-29T22:12:49.649Z,17.40
2017-09-29T22:15:18.131Z,19.33
2017-09-29T22:17:45.737Z,19.30
2017-09-29T22:20:14.566Z,16.50
2017-09-29T22:22:42.106Z,18.53
2017-09-29T22:25:11.470Z,19.13
2017-09-29T22:27:39.122Z,19.80
2017-09-29T22:30:06.626Z,19.53
2017-09-29T22:32:34.527Z,19.70
2017-09-29T22:35:02.966Z,19.80
2017-09-29T22:37:30.875Z,21.33
2017-09-29T22:39:59.310Z,30.07
2017-09-29T22:42:27.206Z,31.13
2017-09-29T22:44:54.693Z,23.17
2017-09-29T22:47:22.202Z,23.60
2017-09-29T22:49:50.643Z,24.00
2017-09-29T22:52:18.156Z,22.60
2017-09-29T22:54:45.646Z,21.23
2017-09-29T22:57:13.150Z,22.67
2017-09-29T22:59:41.050Z,23.10
2017-09-29T23:02:08.565Z,22.93
2017-09-29T23:04:36.458Z,22.53
2017-09-29T23:07:04.921Z,24.23
2017-09-29T23:09:32.814Z,27.03
2017-09-29T23:12:00.326Z,23.27
2017-09-29T23:14:27.823Z,22.80
2017-09-29T23:16:55.337Z,20.60
2017-09-29T23:19:22.820Z,19.37
2017-09-29T23:21:50.717Z,19.90
2017-09-29T23:24:18.214Z,21.90
2017-09-29T23:26:45.714Z,17.47
2017-09-29T23:29:13.269Z,18.80
2017-09-29T23:31:40.778Z,18.50
2017-09-29T23:34:08.266Z,24.93
2017-09-29T23:36:38.110Z,21.23
2017-09-29T23:39:05.598Z,20.77
2017-09-29T23:41:35.063Z,21.43
2017-09-29T23:44:02.554Z,21.87
2017-09-29T23:46:30.058Z,25.87
2017-09-29T23:48:57.938Z,24.40
2017-09-29T23:51:25.457Z,23.57
2017-09-29T23:53:52.944Z,31.90
2017-09-29T23:56:20.874Z,35.80
2017-09-29T23:58:48.376Z,36.07
